Time;durP1;ratioP1;P1;durP2;ratioP2;P2;SDS_P1;SDS_P2;PMS_P1;PMS_P2;Temp;Humidity;BMP_temperature;BMP_pressure;BME280_temperature;BME280_humidity;BME280_pressure;Samples;Min_cycle;Max_cycle;Signal;HPM_P1;HPM_P2
2023/01/03 00:00:49;;;;;;;71.03;48.70;;;;;;;5.49;100.00;102459.31;2105007;28;20236;-63
2023/01/03 00:01:51;;;;;;;54.40;42.37;;;;;;;5.47;100.00;102458.06;2104620;28;20170;-64
2023/01/03 00:02:51;;;;;;;68.55;48.13;;;;;;;5.44;100.00;102461.53;2104872;28;20196;-63
2023/01/03 00:03:54;;;;;;;42.93;35.60;;;;;;;5.42;100.00;102461.06;2105247;28;20173;-63
2023/01/03 00:04:55;;;;;;;97.20;55.30;;;;;;;5.23;100.00;102437.03;2105338;28;20177;-63
2023/01/03 00:05:55;;;;;;;72.07;52.83;;;;;;;5.39;100.00;102456.28;2105278;28;20193;-64
2023/01/03 00:06:56;;;;;;;70.97;51.47;;;;;;;4.77;100.00;102354.53;2105187;28;20210;-64
2023/01/03 00:07:56;;;;;;;56.83;44.30;;;;;;;5.28;100.00;102427.72;2104629;28;20205;-64
2023/01/03 00:08:58;;;;;;;63.50;46.50;;;;;;;5.34;100.00;102454.59;2110505;28;20776;-63
2023/01/03 00:10:06;;;;;;;58.97;45.33;;;;;;;5.33;100.00;102455.75;2118806;28;20673;-63
2023/01/03 00:12:22;;;;;;;77.60;52.90;;;;;;;4.78;100.00;102376.13;2109826;28;20291;-64
2023/01/03 00:12:39;;;;;;;68.00;49.67;;;;;;;5.29;100.00;102451.31;2110983;28;20212;-63
2023/01/03 00:13:40;;;;;;;70.47;50.97;;;;;;;5.25;100.00;102448.47;2113693;28;20205;-63
2023/01/03 00:14:42;;;;;;;72.93;51.35;;;;;;;5.24;100.00;102452.34;2113403;28;20379;-64
2023/01/03 00:15:43;;;;;;;73.55;54.17;;;;;;;5.17;100.00;102435.69;2113501;28;20613;-64
2023/01/03 00:16:43;;;;;;;100.00;69.13;;;;;;;5.05;100.00;102412.97;2113431;28;20181;-63
2023/01/03 00:17:44;;;;;;;83.80;60.03;;;;;;;5.18;100.00;102439.25;2113641;28;20177;-64
2023/01/03 00:18:45;;;;;;;82.07;59.00;;;;;;;4.68;100.00;102357.44;2122248;28;20708;-64
2023/01/03 00:19:45;;;;;;;98.80;71.20;;;;;;;5.17;100.00;102438.44;2096868;28;20194;-63
2023/01/03 00:20:46;;;;;;;95.43;67.97;;;;;;;5.18;100.00;102442.00;2102900;28;20288;-64
2023/01/03 00:21:47;;;;;;;84.33;60.93;;;;;;;5.17;100.00;102456.88;2112880;28;20196;-64
2023/01/03 00:22:47;;;;;;;72.87;52.70;;;;;;;5.15;100.00;102440.75;2117749;28;20197;-63
2023/01/03 00:23:48;;;;;;;74.30;54.43;;;;;;;5.16;100.00;102441.53;2115499;28;20652;-63
2023/01/03 00:24:48;;;;;;;67.43;50.73;;;;;;;4.68;100.00;102373.91;2108198;28;20626;-63
2023/01/03 00:25:49;;;;;;;66.40;51.07;;;;;;;5.11;100.00;102442.59;2113824;28;20529;-63
2023/01/03 00:26:49;;;;;;;65.90;50.23;;;;;;;4.71;100.00;102381.44;2122227;28;20180;-63
2023/01/03 00:27:50;;;;;;;78.67;56.47;;;;;;;5.05;100.00;102444.00;2113410;28;20300;-63
2023/01/03 00:28:50;;;;;;;104.97;77.00;;;;;;;5.02;100.00;102452.16;2113579;28;20269;-63
2023/01/03 00:29:51;;;;;;;92.17;66.23;;;;;;;5.00;100.00;102448.94;2108027;28;20189;-63
2023/01/03 00:30:51;;;;;;;87.53;67.53;;;;;;;5.00;100.00;102457.19;2104979;28;20810;-63
2023/01/03 00:31:52;;;;;;;85.80;64.40;;;;;;;4.98;100.00;102454.00;2107941;28;20224;-63
2023/01/03 00:32:52;;;;;;;83.23;59.47;;;;;;;4.98;100.00;102445.75;2111027;28;20196;-64
2023/01/03 00:33:53;;;;;;;80.87;58.90;;;;;;;4.86;100.00;102432.06;2105158;28;20199;-64
2023/01/03 00:34:53;;;;;;;82.30;58.87;;;;;;;4.97;100.00;102455.16;2105286;28;20202;-63
2023/01/03 00:35:54;;;;;;;86.63;60.70;;;;;;;4.46;100.00;102382.66;2105202;28;20617;-63
2023/01/03 00:36:54;;;;;;;90.20;66.57;;;;;;;4.90;100.00;102457.69;2104895;28;20187;-63
2023/01/03 00:37:55;;;;;;;81.80;59.93;;;;;;;4.80;100.00;102437.03;2101279;28;20268;-64
2023/01/03 00:38:55;;;;;;;98.20;73.63;;;;;;;4.78;100.00;102444.00;2104477;28;20195;-63
2023/01/03 00:39:56;;;;;;;86.37;65.80;;;;;;;4.83;100.00;102446.50;2109990;28;20223;-63
2023/01/03 00:41:04;;;;;;;88.20;69.00;;;;;;;4.81;100.00;102446.84;2107027;28;20191;-63
2023/01/03 00:42:05;;;;;;;83.05;62.97;;;;;;;4.76;100.00;102433.38;2113235;28;20210;-63
2023/01/03 00:44:24;;;;;;;94.50;75.45;;;;;;;3.92;100.00;102317.56;2113542;28;20192;-63
2023/01/03 00:45:24;;;;;;;84.77;66.60;;;;;;;4.75;100.00;102455.69;2114427;28;20177;-63
2023/01/03 00:46:25;;;;;;;85.27;68.23;;;;;;;4.60;100.00;102426.22;2122335;28;20202;-63
2023/01/03 00:47:25;;;;;;;80.13;62.07;;;;;;;4.58;100.00;102415.59;2105209;28;20652;-63
2023/01/03 00:48:26;;;;;;;78.60;64.30;;;;;;;4.73;100.00;102447.00;2111807;28;20189;-63
2023/01/03 00:49:27;;;;;;;83.78;64.45;;;;;;;4.65;100.00;102435.00;2113305;28;20654;-64
2023/01/03 00:50:27;;;;;;;78.77;60.47;;;;;;;4.72;100.00;102442.66;2113235;28;20229;-63
2023/01/03 00:51:30;;;;;;;76.63;62.57;;;;;;;4.73;100.00;102439.53;2112675;28;20227;-63
2023/01/03 00:52:31;;;;;;;76.45;59.22;;;;;;;4.61;100.00;102420.38;2110167;28;20849;-63
2023/01/03 00:53:31;;;;;;;80.57;64.27;;;;;;;4.72;100.00;102443.44;2105007;28;20181;-63
2023/01/03 00:54:32;;;;;;;82.37;70.40;;;;;;;4.74;100.00;102451.34;2105054;28;20170;-63
2023/01/03 00:55:34;;;;;;;83.53;63.23;;;;;;;4.68;100.00;102445.31;2120903;28;20214;-63
2023/01/03 00:56:37;;;;;;;77.15;59.47;;;;;;;4.71;100.00;102446.53;2114114;28;20200;-63
2023/01/03 00:57:38;;;;;;;78.45;59.17;;;;;;;4.69;100.00;102444.16;2105837;28;20197;-63
2023/01/03 00:58:39;;;;;;;69.80;56.63;;;;;;;4.69;100.00;102448.84;2106656;28;20275;-64
2023/01/03 00:59:39;;;;;;;70.97;58.73;;;;;;;4.72;100.00;102445.41;2106498;28;20193;-64
2023/01/03 01:00:40;;;;;;;68.63;57.13;;;;;;;4.71;100.00;102443.78;2100926;28;20190;-64
2023/01/03 01:01:46;;;;;;;75.27;59.17;;;;;;;4.71;100.00;102441.03;2105256;28;20178;-63
2023/01/03 01:02:46;;;;;;;69.78;56.80;;;;;;;4.68;100.00;102434.34;2112526;28;20180;-64
2023/01/03 01:03:49;;;;;;;71.27;57.27;;;;;;;4.24;100.00;102369.50;2106411;28;20247;-63
2023/01/03 01:04:52;;;;;;;72.50;57.65;;;;;;;4.68;100.00;102447.25;2106486;28;20176;-64
2023/01/03 01:05:52;;;;;;;73.10;60.85;;;;;;;4.66;100.00;102431.13;2106764;28;20172;-64
2023/01/03 01:06:59;;;;;;;65.43;56.23;;;;;;;4.64;100.00;102443.59;2106525;28;20283;-63
2023/01/03 01:08:00;;;;;;;64.72;55.80;;;;;;;4.64;100.00;102438.09;2113259;28;20240;-63
2023/01/03 01:09:02;;;;;;;65.33;56.97;;;;;;;4.39;100.00;102403.63;2112780;27;20224;-63
2023/01/03 01:10:03;;;;;;;67.35;56.78;;;;;;;4.11;100.00;102362.41;2118133;27;20223;-63
2023/01/03 01:11:04;;;;;;;68.33;55.10;;;;;;;4.26;100.00;102386.41;2110130;28;20199;-64
2023/01/03 01:12:06;;;;;;;62.40;51.13;;;;;;;4.64;100.00;102435.34;2105889;28;20197;-63
2023/01/03 01:13:06;;;;;;;65.30;52.70;;;;;;;4.62;100.00;102438.44;2106307;28;20667;-64
2023/01/03 01:14:18;;;;;;;65.43;53.40;;;;;;;4.62;100.00;102426.69;2106661;28;20550;-64
2023/01/03 01:15:19;;;;;;;59.75;50.78;;;;;;;4.04;100.00;102333.97;2098443;28;20165;-63
2023/01/03 01:16:22;;;;;;;61.70;53.67;;;;;;;4.21;100.00;102367.44;2106094;28;20188;-63
2023/01/03 01:17:23;;;;;;;63.60;53.25;;;;;;;4.59;100.00;102432.84;2106521;28;20179;-63
2023/01/03 01:18:23;;;;;;;61.07;53.27;;;;;;;4.57;100.00;102424.19;2113548;28;20188;-64
2023/01/03 01:19:29;;;;;;;56.90;50.57;;;;;;;4.55;100.00;102420.97;2108328;28;20180;-63
2023/01/03 01:20:30;;;;;;;58.00;51.17;;;;;;;4.54;100.00;102427.59;2106469;28;20607;-63
2023/01/03 01:21:30;;;;;;;60.53;51.50;;;;;;;4.06;100.00;102346.19;2105843;28;20287;-63
2023/01/03 01:22:33;;;;;;;59.13;51.57;;;;;;;4.53;100.00;102428.75;2105113;28;20199;-63
2023/01/03 01:23:35;;;;;;;65.75;53.03;;;;;;;4.51;100.00;102420.88;2106354;28;20180;-63
2023/01/03 01:24:35;;;;;;;61.42;54.50;;;;;;;4.42;100.00;102411.19;2107682;28;20169;-63
2023/01/03 01:25:36;;;;;;;65.53;52.13;;;;;;;4.46;100.00;102421.09;2114638;28;20183;-63
2023/01/03 01:26:36;;;;;;;67.10;53.27;;;;;;;4.29;100.00;102409.59;2114993;28;20556;-63
2023/01/03 01:27:37;;;;;;;67.80;55.67;;;;;;;4.43;100.00;102421.81;2106320;28;20356;-63
2023/01/03 01:28:37;;;;;;;68.70;53.37;;;;;;;4.04;100.00;102361.41;2106409;28;20188;-63
2023/01/03 01:29:38;;;;;;;63.23;53.53;;;;;;;4.40;100.00;102419.75;2106435;28;20287;-63
2023/01/03 01:30:38;;;;;;;66.87;48.47;;;;;;;4.41;100.00;102426.06;2106245;28;20702;-64
2023/01/03 01:31:39;;;;;;;60.57;48.00;;;;;;;4.40;100.00;102422.50;2105575;28;20196;-64
2023/01/03 01:32:40;;;;;;;56.07;46.03;;;;;;;4.36;100.00;102421.59;2105726;28;20217;-63
2023/01/03 01:33:40;;;;;;;59.03;43.83;;;;;;;4.35;100.00;102410.94;2106232;28;20639;-63
2023/01/03 01:34:41;;;;;;;57.43;42.20;;;;;;;4.33;100.00;102410.50;2106382;28;20177;-63
2023/01/03 01:35:41;;;;;;;60.50;45.77;;;;;;;4.30;100.00;102417.50;2106325;28;20221;-63
2023/01/03 01:36:44;;;;;;;56.83;41.57;;;;;;;3.70;100.00;102324.34;2106278;28;20195;-63
2023/01/03 01:37:44;;;;;;;54.10;44.97;;;;;;;4.27;100.00;102412.69;2119286;27;20190;-64
2023/01/03 01:38:46;;;;;;;52.47;42.60;;;;;;;4.25;100.00;102405.97;2117906;27;20260;-63
2023/01/03 01:39:46;;;;;;;58.03;45.50;;;;;;;4.22;100.00;102412.16;2106215;28;20581;-63
2023/01/03 01:40:47;;;;;;;57.23;45.03;;;;;;;3.66;100.00;102317.16;2106181;28;20177;-63
2023/01/03 01:44:47;;;;;;;69.13;52.75;;;;;;;3.53;100.00;102327.31;2114597;28;20282;-63
2023/01/03 01:45:47;;;;;;;76.43;53.67;;;;;;;3.94;100.00;102405.78;2108946;28;20571;-63
2023/01/03 01:46:49;;;;;;;93.57;62.80;;;;;;;3.86;100.00;102398.47;2106091;28;20295;-63
2023/01/03 01:47:53;;;;;;;93.47;64.88;;;;;;;3.83;100.00;102399.16;2109054;28;20202;-64
2023/01/03 01:49:01;;;;;;;89.63;63.45;;;;;;;3.76;100.00;102399.75;2112439;28;20270;-64
2023/01/03 01:50:29;;;;;;;160.95;71.10;;;;;;;3.67;100.00;102399.06;2114391;28;20598;-63
2023/01/03 01:51:33;;;;;;;174.27;72.75;;;;;;;3.64;100.00;102399.75;2108615;28;20188;-64
2023/01/03 01:52:36;;;;;;;266.42;84.32;;;;;;;3.25;100.00;102342.88;2105694;28;20249;-63
2023/01/03 01:53:40;;;;;;;214.98;79.50;;;;;;;3.61;100.00;102405.94;2112812;27;20645;-63
2023/01/03 01:54:41;;;;;;;96.47;65.00;;;;;;;3.52;100.00;102413.44;2119847;27;20187;-63
2023/01/03 01:55:46;;;;;;;330.93;82.63;;;;;;;2.57;100.00;102244.31;2112747;28;20174;-63
2023/01/03 01:56:50;;;;;;;115.05;69.85;;;;;;;3.54;100.00;102402.94;2106127;28;20457;-64
2023/01/03 01:57:51;;;;;;;108.38;65.95;;;;;;;3.54;100.00;102399.41;2105573;28;20177;-63
2023/01/03 01:58:52;;;;;;;353.63;91.57;;;;;;;3.29;100.00;102381.34;2106263;28;20195;-64
2023/01/03 01:59:52;;;;;;;261.52;82.68;;;;;;;2.73;100.00;102289.03;2106072;28;20183;-63
2023/01/03 02:00:54;;;;;;;145.60;75.37;;;;;;;3.48;100.00;102406.22;2105785;28;20232;-63
2023/01/03 02:01:55;;;;;;;205.52;77.43;;;;;;;3.48;100.00;102406.22;2105719;28;20187;-63
2023/01/03 02:02:55;;;;;;;176.83;78.33;;;;;;;3.44;100.00;102408.88;2105695;28;20196;-63
2023/01/03 02:04:04;;;;;;;173.10;77.30;;;;;;;3.42;100.00;102404.88;2106128;28;20198;-63
2023/01/03 02:05:07;;;;;;;199.73;77.35;;;;;;;2.68;100.00;102292.78;2105897;28;20189;-63
2023/01/03 02:06:11;;;;;;;240.27;87.93;;;;;;;3.21;100.00;102374.00;2106123;28;20339;-64
2023/01/03 02:07:11;;;;;;;211.55;80.57;;;;;;;3.38;100.00;102409.44;2105908;28;20177;-64
2023/01/03 02:08:12;;;;;;;183.17;76.90;;;;;;;3.38;100.00;102409.44;2105433;28;20252;-63
2023/01/03 02:09:13;;;;;;;195.80;87.47;;;;;;;3.39;100.00;102405.56;2113754;27;20205;-63
2023/01/03 02:10:13;;;;;;;174.00;75.90;;;;;;;3.40;100.00;102404.41;2115128;28;20191;-64
2023/01/03 02:11:23;;;;;;;120.07;70.77;;;;;;;3.36;100.00;102409.78;2107038;28;20207;-63
2023/01/03 02:14:26;;;;;;;141.13;67.72;;;;;;;3.37;100.00;102403.16;2107076;28;20238;-63
2023/01/03 02:15:52;;;;;;;149.30;74.88;;;;;;;3.35;100.00;102408.19;2110924;28;20164;-63
2023/01/03 02:17:15;;;;;;;136.60;69.78;;;;;;;3.37;100.00;102403.16;2077176;28;20213;-63
2023/01/03 02:18:39;;;;;;;167.38;76.68;;;;;;;3.41;100.00;102404.09;2105695;28;20258;-63
2023/01/03 02:19:51;;;;;;;129.07;69.35;;;;;;;3.39;100.00;102397.34;2106083;28;20552;-63
2023/01/03 02:21:24;;;;;;;100.50;65.28;;;;;;;3.41;100.00;102395.84;2121885;27;20678;-63
2023/01/03 02:22:46;;;;;;;101.38;64.65;;;;;;;2.99;100.00;102338.84;2117988;27;20201;-64
2023/01/03 02:24:05;;;;;;;116.18;72.03;;;;;;;3.43;100.00;102395.50;2111685;27;20191;-64
2023/01/03 02:25:24;;;;;;;82.75;61.15;;;;;;;3.45;100.00;102407.72;2111496;28;20186;-63
2023/01/03 02:26:38;;;;;;;90.65;65.78;;;;;;;3.45;100.00;102395.97;2105522;28;20175;-63
2023/01/03 02:28:00;;;;;;;75.00;60.60;;;;;;;3.47;100.00;102399.97;2098422;28;20163;-63
2023/01/03 02:29:22;;;;;;;63.25;52.97;;;;;;;3.47;100.00;102402.72;2107261;28;20171;-63
2023/01/03 02:30:58;;;;;;;57.67;50.55;;;;;;;3.50;100.00;102395.75;2119571;27;20653;-63
2023/01/03 02:32:07;;;;;;;64.85;53.03;;;;;;;3.52;100.00;102399.75;2107230;28;20272;-63
2023/01/03 02:33:40;;;;;;;63.33;52.00;;;;;;;3.52;100.00;102401.69;2105711;28;20687;-63
2023/01/03 02:34:59;;;;;;;61.38;50.10;;;;;;;3.53;100.00;102409.56;2106295;28;20168;-63
2023/01/03 02:36:10;;;;;;;57.88;48.20;;;;;;;3.53;100.00;102404.09;2112306;28;20158;-63
2023/01/03 02:37:26;;;;;;;55.85;48.15;;;;;;;3.54;100.00;102405.69;2105438;28;20185;-63
2023/01/03 02:38:38;;;;;;;57.95;51.55;;;;;;;3.53;100.00;102403.28;2105462;28;20189;-63
2023/01/03 02:39:52;;;;;;;61.72;51.75;;;;;;;2.85;100.00;102292.59;2105900;28;20708;-63
2023/01/03 02:41:23;;;;;;;60.15;51.20;;;;;;;3.14;100.00;102347.16;2105368;28;20190;-63
2023/01/03 02:42:57;;;;;;;63.70;52.47;;;;;;;3.49;100.00;102405.91;2105495;28;20210;-64
2023/01/03 02:44:29;;;;;;;59.08;48.25;;;;;;;3.50;100.00;102393.00;2106704;28;20163;-64
2023/01/03 02:45:51;;;;;;;77.57;50.63;;;;;;;3.58;100.00;102406.59;2114214;28;20186;-64
2023/01/03 02:47:11;;;;;;;97.53;50.67;;;;;;;3.17;100.00;102334.72;2107735;28;20183;-63
2023/01/03 02:48:27;;;;;;;92.90;49.30;;;;;;;3.51;100.00;102391.84;2113090;28;20637;-64
2023/01/03 02:49:39;;;;;;;93.07;52.63;;;;;;;3.32;100.00;102348.56;2111343;28;20171;-64
2023/01/03 02:50:47;;;;;;;91.05;49.67;;;;;;;3.75;100.00;102409.09;2105775;28;20179;-64
2023/01/03 02:51:54;;;;;;;113.57;50.60;;;;;;;3.77;100.00;102406.03;2105178;28;20168;-64
2023/01/03 02:53:02;;;;;;;88.45;45.72;;;;;;;3.74;100.00;102414.97;2096291;28;20218;-63
2023/01/03 02:54:05;;;;;;;76.70;45.22;;;;;;;3.76;100.00;102416.22;2097689;28;20195;-63
2023/01/03 02:55:13;;;;;;;98.38;53.42;;;;;;;3.81;100.00;102407.75;2105627;28;20198;-63
2023/01/03 02:56:23;;;;;;;126.90;51.08;;;;;;;3.86;100.00;102406.72;2096717;28;20192;-64
2023/01/03 02:57:47;;;;;;;68.35;46.55;;;;;;;3.15;100.00;102285.78;2097959;28;20185;-63
2023/01/03 02:58:53;;;;;;;92.13;40.85;;;;;;;3.91;100.00;102409.22;2097745;28;20200;-63
2023/01/03 02:59:59;;;;;;;60.45;42.80;;;;;;;3.91;100.00;102409.22;2106026;28;20173;-63
2023/01/03 03:01:02;;;;;;;44.50;35.88;;;;;;;3.95;100.00;102405.44;2104518;28;20189;-64
2023/01/03 03:02:03;;;;;;;50.38;38.33;;;;;;;3.88;100.00;102387.94;2112515;28;20189;-63
2023/01/03 03:03:10;;;;;;;39.08;34.08;;;;;;;4.03;100.00;102406.44;2107211;28;20179;-63
2023/01/03 03:04:12;;;;;;;39.45;35.22;;;;;;;4.09;100.00;102413.31;2096495;28;20198;-64
2023/01/03 03:05:21;;;;;;;47.50;38.58;;;;;;;4.12;100.00;102399.72;2096612;28;20643;-64
2023/01/03 03:06:33;;;;;;;36.92;32.55;;;;;;;3.82;100.00;102357.25;2105584;28;20184;-63
2023/01/03 03:07:38;;;;;;;37.28;33.50;;;;;;;4.17;100.00;102407.72;2105160;28;20264;-63
2023/01/03 03:08:38;;;;;;;35.05;31.55;;;;;;;4.18;100.00;102408.50;2105560;28;20205;-64
2023/01/03 03:13:40;;;;;;;48.90;34.05;;;;;;;4.18;100.00;102408.50;2105479;28;20671;-63
2023/01/03 03:14:49;;;;;;;44.88;33.20;;;;;;;3.79;100.00;102355.19;2105326;28;20193;-64
2023/01/03 03:16:06;;;;;;;52.47;36.25;;;;;;;3.50;100.00;102308.03;2105519;28;20186;-63
2023/01/03 03:17:17;;;;;;;43.28;35.75;;;;;;;4.11;100.00;102409.06;2105689;28;20177;-63
2023/01/03 03:18:23;;;;;;;41.65;35.60;;;;;;;4.12;100.00;102421.66;2105342;28;20216;-64
2023/01/03 03:25:33;;;;;;;36.00;32.22;;;;;;;4.17;100.00;102426.09;2111825;28;20638;-63
2023/01/03 03:26:40;;;;;;;36.28;32.50;;;;;;;4.19;100.00;102408.16;2105472;28;20339;-63
2023/01/03 03:29:09;;;;;;;33.97;30.42;;;;;;;4.15;100.00;102401.75;2105291;28;20165;-64
2023/01/03 03:30:14;;;;;;;37.28;32.50;;;;;;;3.80;100.00;102342.28;2105471;28;20174;-63
2023/01/03 03:31:52;;;;;;;34.83;31.08;;;;;;;4.20;100.00;102398.75;2104594;28;20235;-64
2023/01/03 03:32:58;;;;;;;33.70;29.70;;;;;;;4.26;100.00;102410.31;2070641;28;20251;-63
2023/01/03 03:34:08;;;;;;;39.13;32.88;;;;;;;4.26;100.00;102404.81;2091345;28;20210;-63
2023/01/03 03:35:13;;;;;;;41.25;36.00;;;;;;;3.81;100.00;102343.88;2105408;28;20196;-63
2023/01/03 03:36:24;;;;;;;52.22;41.42;;;;;;;4.25;100.00;102411.47;2105404;28;20185;-63
2023/01/03 03:37:26;;;;;;;41.67;35.38;;;;;;;3.80;100.00;102337.56;2110233;28;20274;-63
2023/01/03 03:38:45;;;;;;;42.33;36.47;;;;;;;3.84;100.00;102340.44;2113420;28;20197;-63
2023/01/03 03:44:59;;;;;;;47.47;39.35;;;;;;;3.69;100.00;102360.34;2105393;28;20708;-64
2023/01/03 03:46:08;;;;;;;52.78;43.15;;;;;;;3.99;100.00;102402.78;2105656;28;20562;-64
2023/01/03 03:47:24;;;;;;;49.15;37.88;;;;;;;3.82;100.00;102390.16;2105486;28;20170;-63
2023/01/03 03:48:30;;;;;;;44.60;36.85;;;;;;;3.91;100.00;102412.75;2105546;28;20218;-64
2023/01/03 03:49:36;;;;;;;51.25;42.60;;;;;;;3.91;100.00;102407.25;2113578;28;20181;-63
2023/01/03 03:50:48;;;;;;;47.88;40.53;;;;;;;3.89;100.00;102404.06;2113838;28;20675;-63
2023/01/03 03:51:49;;;;;;;48.40;40.53;;;;;;;3.86;100.00;102395.75;2104933;28;20817;-63
2023/01/03 03:52:57;;;;;;;55.03;43.33;;;;;;;3.86;100.00;102409.44;2113440;28;20178;-63
2023/01/03 03:54:01;;;;;;;52.30;41.92;;;;;;;3.82;100.00;102406.59;2105593;28;20265;-63
2023/01/03 03:55:21;;;;;;;54.83;42.17;;;;;;;3.77;100.00;102398.59;2113114;28;20611;-63
2023/01/03 03:56:30;;;;;;;51.72;42.03;;;;;;;3.79;100.00;102398.28;2105530;28;20194;-63
2023/01/03 03:57:35;;;;;;;55.92;43.95;;;;;;;3.73;100.00;102399.63;2105148;28;20170;-63
2023/01/03 03:58:40;;;;;;;52.90;43.65;;;;;;;3.69;100.00;102393.25;2105719;28;20621;-63
2023/01/03 03:59:45;;;;;;;54.25;43.15;;;;;;;3.69;100.00;102391.28;2113652;28;20177;-63
2023/01/03 04:00:50;;;;;;;56.20;44.63;;;;;;;3.59;100.00;102383.53;2105892;28;20205;-63
2023/01/03 04:01:52;;;;;;;52.47;43.78;;;;;;;3.64;100.00;102388.78;2104549;28;20185;-63
2023/01/03 04:02:56;;;;;;;59.10;44.90;;;;;;;3.65;100.00;102411.50;2104750;28;20198;-63
2023/01/03 04:04:01;;;;;;;60.72;48.55;;;;;;;3.41;100.00;102362.97;2105350;28;20194;-63
2023/01/03 04:05:06;;;;;;;62.15;47.03;;;;;;;3.61;100.00;102392.22;2105158;28;20227;-63
2023/01/03 04:06:12;;;;;;;64.82;47.33;;;;;;;3.55;100.00;102393.56;2105452;28;20263;-63
2023/01/03 04:07:13;;;;;;;60.15;45.75;;;;;;;3.54;100.00;102386.50;2105170;28;20265;-64
2023/01/03 04:08:13;;;;;;;59.07;46.73;;;;;;;3.53;100.00;102395.03;2104767;28;20171;-64
2023/01/03 04:09:15;;;;;;;63.47;47.67;;;;;;;3.38;100.00;102379.31;2111600;28;20194;-64
2023/01/03 04:10:19;;;;;;;61.35;48.50;;;;;;;3.48;100.00;102400.75;2113350;28;20265;-63
2023/01/03 04:11:19;;;;;;;66.90;50.47;;;;;;;3.43;100.00;102410.00;2104372;28;20178;-63
2023/01/03 04:12:20;;;;;;;68.27;47.53;;;;;;;3.42;100.00;102400.19;2104877;28;20181;-63
2023/01/03 04:13:20;;;;;;;68.37;50.17;;;;;;;2.76;100.00;102291.09;2105220;28;20649;-63
2023/01/03 04:14:20;;;;;;;70.27;51.77;;;;;;;3.38;100.00;102401.22;2105283;28;20228;-63
2023/01/03 04:15:21;;;;;;;68.73;49.97;;;;;;;2.62;100.00;102271.47;2109414;28;20181;-63
2023/01/03 04:16:21;;;;;;;72.00;52.33;;;;;;;2.82;100.00;102322.59;2113604;28;20193;-64
2023/01/03 04:17:22;;;;;;;75.60;53.57;;;;;;;3.28;100.00;102402.44;2111706;28;20304;-64
2023/01/03 04:18:22;;;;;;;73.67;53.13;;;;;;;2.97;100.00;102361.06;2104660;28;20172;-63
2023/01/03 04:19:23;;;;;;;76.57;54.03;;;;;;;3.24;100.00;102412.47;2105357;28;20175;-63
2023/01/03 04:20:24;;;;;;;77.93;54.33;;;;;;;3.00;100.00;102376.84;2112961;28;20665;-64
2023/01/03 04:21:24;;;;;;;90.82;58.65;;;;;;;3.15;100.00;102411.00;2106293;28;20243;-64
2023/01/03 04:22:25;;;;;;;125.17;60.60;;;;;;;3.14;100.00;102401.97;2104814;28;20181;-63
2023/01/03 04:23:25;;;;;;;112.50;59.70;;;;;;;3.17;100.00;102405.97;2105087;28;20409;-64
2023/01/03 04:24:26;;;;;;;128.03;65.77;;;;;;;3.15;100.00;102408.25;2105249;28;20183;-63
2023/01/03 04:25:26;;;;;;;166.63;66.23;;;;;;;3.12;100.00;102395.22;2113311;28;20446;-63
2023/01/03 04:26:27;;;;;;;137.47;62.13;;;;;;;3.12;100.00;102400.69;2112906;28;20310;-63
2023/01/03 04:27:27;;;;;;;139.23;64.03;;;;;;;3.08;100.00;102403.31;2105272;28;20848;-63
2023/01/03 04:28:28;;;;;;;200.60;63.57;;;;;;;3.04;100.00;102410.59;2120937;28;20233;-63
2023/01/03 04:29:28;;;;;;;245.23;63.23;;;;;;;2.93;100.00;102398.50;2108455;28;20187;-63
2023/01/03 04:30:28;;;;;;;197.70;61.43;;;;;;;2.96;100.00;102405.22;2116212;28;20535;-63
2023/01/03 04:31:29;;;;;;;211.37;63.77;;;;;;;2.49;100.00;102333.56;2112585;28;20191;-63
2023/01/03 04:32:30;;;;;;;194.47;63.13;;;;;;;2.91;100.00;102399.97;2107839;28;20348;-64
2023/01/03 04:33:30;;;;;;;212.47;63.13;;;;;;;2.87;100.00;102401.81;2115046;28;20202;-63
2023/01/03 04:34:30;;;;;;;173.63;61.63;;;;;;;2.76;100.00;102395.13;2115164;28;20189;-63
2023/01/03 04:35:32;;;;;;;108.60;56.67;;;;;;;2.86;100.00;102400.19;2115392;28;20208;-63
2023/01/03 04:36:32;;;;;;;110.32;52.72;;;;;;;2.72;100.00;102386.78;2115104;28;20260;-63
2023/01/03 04:37:32;;;;;;;125.00;52.90;;;;;;;2.71;100.00;102384.38;2121452;27;20197;-63
2023/01/03 04:38:33;;;;;;;150.37;55.37;;;;;;;2.85;100.00;102412.28;2103130;28;20199;-63
2023/01/03 04:39:33;;;;;;;111.43;49.73;;;;;;;2.13;100.00;102294.31;2097687;28;20190;-63
2023/01/03 04:40:35;;;;;;;116.37;47.73;;;;;;;2.53;100.00;102363.78;2106595;28;20191;-63
2023/01/03 04:41:35;;;;;;;79.25;45.03;;;;;;;2.83;100.00;102403.59;2106063;28;20188;-64
2023/01/03 04:44:00;;;;;;;115.20;47.33;;;;;;;2.89;100.00;102411.28;2106841;28;20183;-63
2023/01/03 04:45:01;;;;;;;143.07;47.40;;;;;;;2.87;100.00;102413.53;2106408;28;20637;-63
2023/01/03 04:46:01;;;;;;;122.43;42.60;;;;;;;2.42;100.00;102341.50;2106881;28;20248;-63
2023/01/03 04:47:02;;;;;;;139.80;45.20;;;;;;;2.87;100.00;102413.53;2097676;28;20175;-63
2023/01/03 04:48:02;;;;;;;179.97;49.13;;;;;;;2.85;100.00;102420.50;2097070;28;20697;-63
2023/01/03 04:49:04;;;;;;;218.07;51.10;;;;;;;2.85;100.00;102417.75;2108672;28;20240;-63
2023/01/03 04:50:05;;;;;;;183.77;53.28;;;;;;;2.66;100.00;102395.53;2114832;28;20237;-63
2023/01/03 04:51:06;;;;;;;279.60;60.30;;;;;;;2.69;100.00;102406.66;2109778;28;20657;-63
2023/01/03 04:52:06;;;;;;;179.37;52.83;;;;;;;2.73;100.00;102418.50;2106121;28;20222;-63
2023/01/03 04:53:07;;;;;;;230.57;58.40;;;;;;;2.71;100.00;102419.97;2108879;28;20173;-63
2023/01/03 04:54:07;;;;;;;121.33;52.60;;;;;;;2.72;100.00;102416.91;2114972;28;20181;-64
2023/01/03 04:55:08;;;;;;;219.17;57.93;;;;;;;2.05;100.00;102312.41;2115209;28;20175;-64
2023/01/03 04:56:09;;;;;;;225.48;58.05;;;;;;;2.75;100.00;102421.72;2106858;28;20652;-63
2023/01/03 04:57:09;;;;;;;264.03;55.33;;;;;;;2.65;100.00;102433.09;2114073;28;20632;-63
2023/01/03 04:58:10;;;;;;;247.47;60.63;;;;;;;2.70;100.00;102432.88;2108230;28;20183;-63
2023/01/03 04:59:10;;;;;;;111.63;50.47;;;;;;;2.74;100.00;102435.72;2106569;28;20187;-63
2023/01/03 05:00:11;;;;;;;211.30;46.47;;;;;;;2.76;100.00;102433.44;2106523;28;20696;-63
2023/01/03 05:01:12;;;;;;;109.22;43.47;;;;;;;2.72;100.00;102430.59;2105498;28;20199;-63
2023/01/03 05:02:12;;;;;;;122.43;48.07;;;;;;;2.71;100.00;102437.22;2111473;28;20183;-72
2023/01/03 05:03:13;;;;;;;126.70;46.00;;;;;;;2.77;100.00;102435.06;2111363;28;20182;-74
2023/01/03 05:04:13;;;;;;;176.33;44.20;;;;;;;2.76;100.00;102434.25;2108917;28;20558;-65
2023/01/03 05:05:14;;;;;;;217.17;42.20;;;;;;;2.75;100.00;102451.03;2113391;27;20179;-65
2023/01/03 05:06:15;;;;;;;153.30;41.47;;;;;;;2.79;100.00;102438.25;2114050;27;20190;-69
2023/01/03 05:07:15;;;;;;;158.05;43.63;;;;;;;2.76;100.00;102442.47;2116489;27;20594;-70
2023/01/03 05:08:16;;;;;;;162.43;44.27;;;;;;;2.78;100.00;102444.88;2114579;27;20208;-60
2023/01/03 05:09:16;;;;;;;246.40;49.03;;;;;;;2.72;100.00;102448.97;2116402;27;20204;-70
2023/01/03 05:10:17;;;;;;;212.23;44.97;;;;;;;2.26;100.00;102387.03;2113877;27;20174;-70
2023/01/03 05:11:17;;;;;;;237.13;52.27;;;;;;;2.70;100.00;102456.69;2113040;28;20875;-71
2023/01/03 05:12:18;;;;;;;240.93;50.90;;;;;;;2.63;100.00;102454.50;2117172;27;20189;-68
2023/01/03 05:13:18;;;;;;;215.80;49.53;;;;;;;2.61;100.00;102447.75;2113449;27;20217;-67
2023/01/03 05:14:19;;;;;;;188.33;47.83;;;;;;;1.93;100.00;102345.16;2114096;27;20182;-69
2023/01/03 05:15:19;;;;;;;200.73;48.67;;;;;;;2.57;100.00;102446.84;2113066;28;20736;-75
2023/01/03 05:16:19;;;;;;;238.73;42.30;;;;;;;2.61;100.00;102451.31;2116860;27;20182;-66
2023/01/03 05:17:20;;;;;;;204.47;43.50;;;;;;;2.56;100.00;102451.50;2117519;27;20227;-71